createdAt,value
2019-05-14T00:00:42.006Z,1019.37
2019-05-14T00:01:42.390Z,1019.38
2019-05-14T00:02:41.981Z,1019.35
2019-05-14T00:03:41.989Z,1019.35
2019-05-14T00:04:42.475Z,1019.36
2019-05-14T00:05:42.446Z,1019.38
2019-05-14T00:06:42.005Z,1019.39
2019-05-14T00:07:41.955Z,1019.38
2019-05-14T00:08:42.038Z,1019.39
2019-05-14T00:09:41.944Z,1019.33
2019-05-14T00:10:41.938Z,1019.36
2019-05-14T00:11:42.281Z,1019.35
2019-05-14T00:12:42.046Z,1019.33
2019-05-14T00:13:41.917Z,1019.33
2019-05-14T00:14:43.721Z,1019.34
2019-05-14T00:15:41.907Z,1019.36
2019-05-14T00:16:42.554Z,1019.33
2019-05-14T00:17:41.952Z,1019.32
2019-05-14T00:18:42.114Z,1019.30
2019-05-14T00:19:41.977Z,1019.33
2019-05-14T00:20:42.074Z,1019.26
2019-05-14T00:21:42.500Z,1019.27
2019-05-14T00:22:41.910Z,1019.27
2019-05-14T00:23:42.183Z,1019.23
2019-05-14T00:24:41.993Z,1019.22
2019-05-14T00:25:42.013Z,1019.18
2019-05-14T00:26:42.670Z,1019.22
2019-05-14T00:27:41.819Z,1019.16
2019-05-14T00:28:42.338Z,1019.19
2019-05-14T00:29:42.072Z,1019.18
2019-05-14T00:30:42.255Z,1019.13
2019-05-14T00:31:42.589Z,1019.10
2019-05-14T00:32:41.789Z,1019.13
2019-05-14T00:33:42.083Z,1019.13
2019-05-14T00:34:42.495Z,1019.11
2019-05-14T00:35:41.772Z,1019.11
2019-05-14T00:36:41.969Z,1019.11
2019-05-14T00:37:41.756Z,1019.12
2019-05-14T00:38:42.107Z,1019.09
2019-05-14T00:39:41.889Z,1019.11
2019-05-14T00:40:42.050Z,1019.07
2019-05-14T00:41:42.172Z,1019.08
2019-05-14T00:42:41.759Z,1019.07
2019-05-14T00:43:41.782Z,1019.07
2019-05-14T00:44:53.675Z,1019.10
2019-05-14T00:45:41.889Z,1019.05
2019-05-14T00:46:41.692Z,1019.04
2019-05-14T00:47:42.023Z,1019.01
2019-05-14T00:48:42.215Z,1019.01
2019-05-14T00:49:42.511Z,1019.03
2019-05-14T00:50:42.198Z,1019.03
2019-05-14T00:51:41.657Z,1018.97
2019-05-14T00:52:44.226Z,1018.97
2019-05-14T00:53:42.114Z,1018.96
2019-05-14T00:54:42.006Z,1018.96
2019-05-14T00:55:42.067Z,1018.91
2019-05-14T00:56:41.889Z,1018.92
2019-05-14T00:57:42.482Z,1018.91
2019-05-14T00:58:41.621Z,1018.91
2019-05-14T00:59:41.901Z,1018.92
2019-05-14T01:00:41.919Z,1018.89
2019-05-14T01:01:42.555Z,1018.91
2019-05-14T01:02:41.823Z,1018.87
2019-05-14T01:03:41.657Z,1018.90
2019-05-14T01:04:42.772Z,1018.95
2019-05-14T01:05:41.557Z,1018.99
2019-05-14T01:06:42.193Z,1018.97
2019-05-14T01:07:42.329Z,1018.99
2019-05-14T01:08:41.556Z,1019.01
2019-05-14T01:09:42.041Z,1019.05
2019-05-14T01:10:41.854Z,1019.02
2019-05-14T01:11:42.090Z,1018.95
2019-05-14T01:12:41.616Z,1018.98
2019-05-14T01:13:41.788Z,1018.99
2019-05-14T01:14:42.425Z,1019.05
2019-05-14T01:15:41.635Z,1019.03
2019-05-14T01:16:42.490Z,1019.06
2019-05-14T01:17:42.162Z,1019.02
2019-05-14T01:18:41.621Z,1019.03
2019-05-14T01:19:42.547Z,1019.02
2019-05-14T01:20:41.461Z,1019.01
2019-05-14T01:21:41.803Z,1018.99
2019-05-14T01:22:42.213Z,1018.98
2019-05-14T01:23:41.685Z,1018.99
2019-05-14T01:24:41.861Z,1018.99
2019-05-14T01:25:42.230Z,1018.92
2019-05-14T01:26:41.693Z,1018.92
2019-05-14T01:27:41.563Z,1018.92
2019-05-14T01:28:41.695Z,1018.92
2019-05-14T01:29:42.539Z,1018.90
2019-05-14T01:30:41.386Z,1018.91
2019-05-14T01:31:41.879Z,1018.86
2019-05-14T01:32:42.101Z,1018.83
2019-05-14T01:33:41.360Z,1018.84
2019-05-14T01:34:42.104Z,1018.78
2019-05-14T01:35:42.013Z,1018.79
2019-05-14T01:36:41.557Z,1018.78
2019-05-14T01:37:41.793Z,1018.79
2019-05-14T01:38:41.830Z,1018.77
2019-05-14T01:39:42.001Z,1018.76
2019-05-14T01:40:41.965Z,1018.76
2019-05-14T01:41:42.409Z,1018.75
2019-05-14T01:42:41.760Z,1018.75
2019-05-14T01:43:41.986Z,1018.77
2019-05-14T01:44:41.545Z,1018.77
2019-05-14T01:45:41.800Z,1018.73
2019-05-14T01:46:42.029Z,1018.77
2019-05-14T01:47:41.613Z,1018.76
2019-05-14T01:48:41.760Z,1018.77
2019-05-14T01:49:42.764Z,1018.76
2019-05-14T01:50:41.451Z,1018.73
2019-05-14T01:51:42.399Z,1018.73
2019-05-14T01:52:41.630Z,1018.68
2019-05-14T01:53:41.647Z,1018.71
2019-05-14T01:54:42.670Z,1018.70
2019-05-14T01:55:41.567Z,1018.68
2019-05-14T01:56:42.386Z,1018.72
2019-05-14T01:57:42.457Z,1018.70
2019-05-14T01:58:41.690Z,1018.70
2019-05-14T01:59:42.845Z,1018.68
2019-05-14T02:00:41.722Z,1018.72
2019-05-14T02:01:41.718Z,1018.73
2019-05-14T02:02:41.749Z,1018.68
2019-05-14T02:03:41.263Z,1018.69
2019-05-14T02:04:42.731Z,1018.67
2019-05-14T02:05:41.607Z,1018.67
2019-05-14T02:06:41.515Z,1018.73
2019-05-14T02:07:42.016Z,1018.68
2019-05-14T02:08:41.441Z,1018.73
2019-05-14T02:09:42.042Z,1018.70
2019-05-14T02:10:41.929Z,1018.71
2019-05-14T02:11:41.685Z,1018.68
2019-05-14T02:12:42.378Z,1018.67
2019-05-14T02:13:41.481Z,1018.65
2019-05-14T02:14:42.528Z,1018.67
2019-05-14T02:15:43.029Z,1018.63
2019-05-14T02:16:42.292Z,1018.63
2019-05-14T02:17:41.540Z,1018.63
2019-05-14T02:18:41.608Z,1018.62
2019-05-14T02:19:42.632Z,1018.63
2019-05-14T02:20:41.429Z,1018.65
2019-05-14T02:21:42.533Z,1018.65
2019-05-14T02:22:41.665Z,1018.61
2019-05-14T02:23:42.026Z,1018.62
2019-05-14T02:24:41.734Z,1018.62
2019-05-14T02:25:41.358Z,1018.60
2019-05-14T02:26:42.521Z,1018.63
2019-05-14T02:27:41.444Z,1018.62
2019-05-14T02:28:42.038Z,1018.61
2019-05-14T02:29:41.637Z,1018.58
2019-05-14T02:30:51.869Z,1018.60
2019-05-14T02:31:40.946Z,1018.61
2019-05-14T02:32:41.034Z,1018.55
2019-05-14T02:33:40.950Z,1018.59
2019-05-14T02:34:40.909Z,1018.64
2019-05-14T02:35:40.942Z,1018.64
2019-05-14T02:36:40.898Z,1018.63
2019-05-14T02:37:40.896Z,1018.65
2019-05-14T02:38:40.890Z,1018.69
2019-05-14T02:39:41.359Z,1018.71
2019-05-14T02:40:40.873Z,1018.72
2019-05-14T02:41:40.862Z,1018.74
2019-05-14T02:42:40.867Z,1018.77
2019-05-14T02:43:41.244Z,1018.77
2019-05-14T02:44:41.207Z,1018.75
2019-05-14T02:46:00.056Z,1018.73
2019-05-14T02:46:40.835Z,1018.64
2019-05-14T02:47:40.816Z,1018.62
2019-05-14T02:48:40.803Z,1018.66
2019-05-14T02:49:40.800Z,1018.64
2019-05-14T02:50:40.794Z,1018.66
2019-05-14T02:51:40.789Z,1018.71
2019-05-14T02:52:40.767Z,1018.67
2019-05-14T02:53:40.773Z,1018.65
2019-05-14T02:54:40.923Z,1018.62
2019-05-14T02:55:40.755Z,1018.64
2019-05-14T02:56:40.743Z,1018.65
2019-05-14T02:57:40.764Z,1018.65
2019-05-14T02:58:40.745Z,1018.70
2019-05-14T02:59:40.740Z,1018.71
2019-05-14T03:00:41.002Z,1018.73
2019-05-14T03:01:41.055Z,1018.68
2019-05-14T03:02:40.693Z,1018.69
2019-05-14T03:03:40.686Z,1018.70
2019-05-14T03:04:40.673Z,1018.68
2019-05-14T03:05:40.673Z,1018.67
2019-05-14T03:06:40.652Z,1018.72
2019-05-14T03:07:40.661Z,1018.73
2019-05-14T03:08:40.682Z,1018.69
2019-05-14T03:09:40.695Z,1018.70
2019-05-14T03:10:40.623Z,1018.64
2019-05-14T03:11:40.811Z,1018.68
2019-05-14T03:12:40.612Z,1018.69
2019-05-14T03:13:40.615Z,1018.67
2019-05-14T03:14:40.621Z,1018.67
2019-05-14T03:15:40.586Z,1018.70
2019-05-14T03:16:40.856Z,1018.68
2019-05-14T03:17:40.817Z,1018.68
2019-05-14T03:18:40.564Z,1018.65
2019-05-14T03:19:41.187Z,1018.68
2019-05-14T03:20:40.547Z,1018.63
2019-05-14T03:21:40.539Z,1018.65
2019-05-14T03:22:53.762Z,1018.61
2019-05-14T03:23:40.522Z,1018.64
2019-05-14T03:24:40.511Z,1018.62
2019-05-14T03:25:40.508Z,1018.64
2019-05-14T03:26:40.501Z,1018.59
2019-05-14T03:27:40.795Z,1018.61
2019-05-14T03:28:40.477Z,1018.60
2019-05-14T03:29:40.629Z,1018.66
2019-05-14T03:30:42.516Z,1018.65
2019-05-14T03:31:42.726Z,1018.65
2019-05-14T03:32:42.274Z,1018.64
2019-05-14T03:33:43.960Z,1018.69
2019-05-14T03:34:42.939Z,1018.64
2019-05-14T03:35:49.182Z,1018.65
2019-05-14T03:36:43.009Z,1018.70
2019-05-14T03:37:40.407Z,1018.67
2019-05-14T03:38:40.403Z,1018.68
2019-05-14T03:39:40.394Z,1018.69
2019-05-14T03:40:40.385Z,1018.69
2019-05-14T03:41:40.369Z,1018.69
2019-05-14T03:42:40.359Z,1018.68
2019-05-14T03:43:40.354Z,1018.68
2019-05-14T03:44:40.350Z,1018.65
2019-05-14T03:45:40.345Z,1018.65
2019-05-14T03:46:49.477Z,1018.64
2019-05-14T03:47:40.373Z,1018.61
2019-05-14T03:48:40.376Z,1018.60
2019-05-14T03:49:40.333Z,1018.57
2019-05-14T03:50:40.302Z,1018.67
2019-05-14T03:51:40.293Z,1018.62
2019-05-14T03:52:40.283Z,1018.62
2019-05-14T03:53:55.426Z,1018.67
2019-05-14T03:54:40.951Z,1018.65
2019-05-14T03:55:40.730Z,1018.64
2019-05-14T03:56:40.251Z,1018.64
2019-05-14T03:57:40.298Z,1018.62
2019-05-14T03:58:40.236Z,1018.62
2019-05-14T03:59:40.773Z,1018.64
2019-05-14T04:00:40.211Z,1018.57
2019-05-14T04:01:40.428Z,1018.58
2019-05-14T04:02:40.214Z,1018.56
2019-05-14T04:03:40.271Z,1018.54
2019-05-14T04:04:40.200Z,1018.49
2019-05-14T04:05:40.343Z,1018.54
2019-05-14T04:23:29.180Z,1018.54
2019-05-14T04:24:29.662Z,1018.53
2019-05-14T04:26:50.860Z,1018.55
2019-05-14T04:27:32.751Z,1018.57
2019-05-14T04:29:39.603Z,1018.52
2019-05-14T04:30:40.007Z,1018.50
2019-05-14T04:31:39.084Z,1018.57
2019-05-14T04:32:39.431Z,1018.56
2019-05-14T04:33:39.282Z,1018.57
2019-05-14T04:34:39.716Z,1018.59
2019-05-14T04:35:40.135Z,1018.60
2019-05-14T04:36:39.206Z,1018.59
2019-05-14T04:37:39.929Z,1018.66
2019-05-14T04:38:40.536Z,1018.72
2019-05-14T04:39:39.662Z,1018.73
2019-05-14T04:40:40.014Z,1018.67
2019-05-14T04:41:39.326Z,1018.66
2019-05-14T04:42:40.130Z,1018.68
2019-05-14T04:43:40.135Z,1018.70
2019-05-14T04:44:40.371Z,1018.76
2019-05-14T04:45:39.575Z,1018.73
2019-05-14T04:46:39.447Z,1018.68
2019-05-14T04:47:41.524Z,1018.70
2019-05-14T04:48:42.529Z,1018.70
2019-05-14T04:49:39.874Z,1018.68
2019-05-14T04:50:40.207Z,1018.68
2019-05-14T04:51:39.724Z,1018.72
2019-05-14T04:52:40.256Z,1018.72
2019-05-14T04:53:39.402Z,1018.69
2019-05-14T04:54:39.360Z,1018.71
2019-05-14T04:55:39.947Z,1018.70
2019-05-14T04:56:39.904Z,1018.71
2019-05-14T04:57:39.253Z,1018.72
2019-05-14T04:58:40.506Z,1018.77
2019-05-14T04:59:39.722Z,1018.78
2019-05-14T05:00:39.188Z,1018.82
2019-05-14T05:01:40.045Z,1018.90
2019-05-14T05:02:39.808Z,1018.94
2019-05-14T05:03:40.033Z,1018.91
2019-05-14T05:04:40.847Z,1018.93
2019-05-14T05:05:39.403Z,1019.02
2019-05-14T05:06:39.659Z,1019.02
2019-05-14T05:07:39.396Z,1019.05
2019-05-14T05:08:39.507Z,1019.06
2019-05-14T05:09:39.679Z,1019.02
2019-05-14T05:10:39.861Z,1019.03
2019-05-14T05:11:39.479Z,1019.03
2019-05-14T05:12:38.775Z,1019.07
2019-05-14T05:13:39.648Z,1019.08
2019-05-14T05:14:38.884Z,1019.09
2019-05-14T05:15:39.545Z,1019.07
2019-05-14T05:16:39.145Z,1019.13
2019-05-14T05:17:44.150Z,1019.12
2019-05-14T05:18:39.706Z,1019.11
2019-05-14T05:19:39.363Z,1019.16
2019-05-14T05:20:39.358Z,1019.16
2019-05-14T05:21:38.798Z,1019.18
2019-05-14T05:22:39.495Z,1019.17
2019-05-14T05:23:38.776Z,1019.14
2019-05-14T05:24:38.137Z,1019.15
2019-05-14T05:25:38.458Z,1019.18
2019-05-14T05:26:39.240Z,1019.15
2019-05-14T05:27:38.171Z,1019.15
2019-05-14T05:28:39.091Z,1019.10
2019-05-14T05:29:39.246Z,1019.13
2019-05-14T05:30:38.562Z,1019.08
2019-05-14T05:31:38.157Z,1019.11
2019-05-14T05:32:38.888Z,1019.19
2019-05-14T05:33:38.391Z,1019.22
2019-05-14T05:34:38.929Z,1019.11
2019-05-14T05:35:39.244Z,1019.15
2019-05-14T05:36:38.180Z,1019.13
2019-05-14T05:37:38.436Z,1019.13
2019-05-14T05:38:39.447Z,1019.14
2019-05-14T05:39:38.540Z,1019.07
2019-05-14T05:40:39.143Z,1019.07
2019-05-14T05:41:38.489Z,1019.09
2019-05-14T05:42:38.551Z,1019.23
2019-05-14T05:43:39.436Z,1019.24
2019-05-14T05:44:39.343Z,1019.18
2019-05-14T05:45:38.172Z,1019.21
2019-05-14T05:46:38.835Z,1019.22
2019-05-14T05:47:39.138Z,1019.19
2019-05-14T05:48:38.936Z,1019.20
2019-05-14T05:49:38.136Z,1019.20
2019-05-14T05:50:38.891Z,1019.20
2019-05-14T05:51:39.224Z,1019.23
2019-05-14T05:52:38.801Z,1019.21
2019-05-14T05:53:39.301Z,1019.20
2019-05-14T05:54:38.408Z,1019.17
2019-05-14T05:55:39.433Z,1019.13
2019-05-14T05:56:38.758Z,1019.11
2019-05-14T05:57:39.292Z,1019.09
2019-05-14T05:58:39.832Z,1019.10
2019-05-14T05:59:39.325Z,1019.25
2019-05-14T06:00:39.866Z,1019.99
2019-05-14T06:01:45.227Z,1020.65
2019-05-14T06:02:39.933Z,1020.36
2019-05-14T06:03:39.303Z,1020.63
2019-05-14T06:04:39.386Z,1021.33
2019-05-14T06:05:38.904Z,1021.41
2019-05-14T06:06:39.077Z,1019.89
2019-05-14T06:07:39.433Z,1018.74
2019-05-14T06:08:38.732Z,1018.67
2019-05-14T06:09:38.329Z,1018.68
2019-05-14T06:10:39.938Z,1018.71
2019-05-14T06:11:38.289Z,1018.63
2019-05-14T06:12:38.897Z,1018.66
2019-05-14T06:13:39.136Z,1018.58
2019-05-14T06:14:38.351Z,1018.58
2019-05-14T06:15:45.662Z,1018.56
2019-05-14T06:16:38.618Z,1018.58
2019-05-14T06:17:39.263Z,1018.53
2019-05-14T06:18:39.170Z,1018.54
2019-05-14T06:19:38.430Z,1018.53
2019-05-14T06:20:38.684Z,1018.49
2019-05-14T06:21:39.744Z,1018.47
2019-05-14T06:22:38.591Z,1018.45
2019-05-14T06:23:38.802Z,1018.49
2019-05-14T06:24:38.971Z,1018.44
2019-05-14T06:25:40.108Z,1018.48
2019-05-14T06:26:38.487Z,1018.45
2019-05-14T06:27:38.209Z,1018.46
2019-05-14T06:28:40.752Z,1018.48
2019-05-14T06:29:38.404Z,1018.48
2019-05-14T06:30:39.519Z,1018.48
2019-05-14T06:31:38.852Z,1018.47
2019-05-14T06:32:38.759Z,1018.49
2019-05-14T06:33:39.395Z,1018.46
2019-05-14T06:34:38.443Z,1018.49
2019-05-14T06:35:39.572Z,1018.49
2019-05-14T06:36:39.566Z,1018.49
2019-05-14T06:37:38.647Z,1018.49
2019-05-14T06:38:38.802Z,1018.48
2019-05-14T06:39:39.033Z,1018.47
2019-05-14T06:40:39.555Z,1018.46
2019-05-14T06:41:42.652Z,1018.46
2019-05-14T06:42:39.391Z,1018.48
2019-05-14T06:43:39.266Z,1018.46
2019-05-14T06:44:38.687Z,1018.51
2019-05-14T06:45:38.872Z,1018.50
2019-05-14T06:46:39.095Z,1018.47
2019-05-14T06:47:38.429Z,1018.44
2019-05-14T06:48:39.567Z,1018.46
2019-05-14T06:49:38.660Z,1018.44
2019-05-14T06:50:39.173Z,1018.44
2019-05-14T06:51:39.505Z,1018.41
2019-05-14T06:52:38.735Z,1018.42
2019-05-14T06:53:39.202Z,1018.41
2019-05-14T06:54:38.690Z,1018.35
2019-05-14T06:55:39.223Z,1018.41
2019-05-14T06:56:38.667Z,1018.36
2019-05-14T06:57:39.411Z,1018.31
2019-05-14T06:58:38.845Z,1018.37
2019-05-14T06:59:38.267Z,1018.28
2019-05-14T07:00:39.429Z,1018.32
2019-05-14T07:01:38.589Z,1018.30
2019-05-14T07:02:43.560Z,1018.25
2019-05-14T07:03:38.420Z,1018.32
2019-05-14T07:04:39.501Z,1018.30
2019-05-14T07:05:38.987Z,1018.29
2019-05-14T07:06:39.159Z,1018.27
2019-05-14T07:07:40.423Z,1018.30
2019-05-14T07:08:39.291Z,1018.23
2019-05-14T07:09:38.587Z,1018.24
2019-05-14T07:10:39.461Z,1018.24
2019-05-14T07:11:38.889Z,1018.28
2019-05-14T07:12:38.799Z,1018.22
2019-05-14T07:13:38.678Z,1018.21
2019-05-14T07:14:38.901Z,1018.21
2019-05-14T07:15:38.609Z,1018.23
2019-05-14T07:16:39.059Z,1018.18
2019-05-14T07:17:38.515Z,1018.20
2019-05-14T07:18:49.542Z,1018.19
2019-05-14T07:19:38.661Z,1018.18
2019-05-14T07:20:39.229Z,1018.17
2019-05-14T07:21:38.426Z,1018.14
2019-05-14T07:22:38.881Z,1018.13
2019-05-14T07:23:38.633Z,1018.10
2019-05-14T07:24:40.567Z,1018.13
2019-05-14T07:25:39.383Z,1018.00
2019-05-14T07:26:38.791Z,1018.20
2019-05-14T07:27:39.164Z,1018.09
2019-05-14T07:28:42.011Z,1018.08
2019-05-14T07:29:38.700Z,1018.08
2019-05-14T07:30:39.669Z,1018.14
2019-05-14T07:31:38.562Z,1018.15
2019-05-14T07:32:39.408Z,1018.13
2019-05-14T07:33:38.785Z,1018.14
2019-05-14T07:34:38.845Z,1018.10
2019-05-14T07:35:38.306Z,1018.14
2019-05-14T07:36:38.727Z,1018.12
2019-05-14T07:37:39.671Z,1018.09
2019-05-14T07:38:39.183Z,1018.09
2019-05-14T07:39:38.575Z,1018.11
2019-05-14T07:40:38.819Z,1018.01
2019-05-14T07:41:38.979Z,1018.10
2019-05-14T07:42:38.563Z,1018.05
2019-05-14T07:43:39.299Z,1018.02
2019-05-14T07:44:39.021Z,1018.05
2019-05-14T07:45:38.519Z,1017.95
2019-05-14T07:46:38.992Z,1017.93
2019-05-14T07:47:38.804Z,1017.96
2019-05-14T07:48:39.283Z,1017.93
2019-05-14T07:49:38.509Z,1017.95
2019-05-14T07:50:39.710Z,1017.95
2019-05-14T07:51:38.828Z,1017.96
2019-05-14T07:52:45.340Z,1017.95
2019-05-14T07:53:42.078Z,1017.92
2019-05-14T07:54:38.978Z,1017.96
2019-05-14T07:55:38.447Z,1017.93
2019-05-14T07:56:38.465Z,1017.97
2019-05-14T07:57:39.275Z,1017.94
2019-05-14T07:58:38.668Z,1017.94
2019-05-14T07:59:38.241Z,1017.88
2019-05-14T08:00:40.173Z,1017.87
2019-05-14T08:01:38.816Z,1017.86
2019-05-14T08:02:38.117Z,1017.89
2019-05-14T08:03:38.388Z,1017.89
2019-05-14T08:04:38.248Z,1017.83
2019-05-14T08:05:39.032Z,1017.80
2019-05-14T08:06:39.430Z,1017.77
2019-05-14T08:07:38.810Z,1017.77
2019-05-14T08:08:38.585Z,1017.78
2019-05-14T08:09:38.901Z,1017.72
2019-05-14T08:10:39.226Z,1017.73
2019-05-14T08:11:38.808Z,1017.75
2019-05-14T08:12:39.189Z,1017.80
2019-05-14T08:13:39.035Z,1017.74
2019-05-14T08:14:45.623Z,1017.73
2019-05-14T08:15:38.658Z,1017.72
2019-05-14T08:16:38.206Z,1017.71
2019-05-14T08:17:38.802Z,1017.72
2019-05-14T08:18:39.591Z,1017.63
2019-05-14T08:19:38.639Z,1017.69
2019-05-14T08:20:38.153Z,1017.74
2019-05-14T08:21:38.700Z,1017.72
2019-05-14T08:22:38.315Z,1017.68
2019-05-14T08:23:39.184Z,1017.61
2019-05-14T08:24:38.609Z,1017.63
2019-05-14T08:25:38.978Z,1017.63
2019-05-14T08:26:38.347Z,1017.61
2019-05-14T08:27:38.938Z,1017.62
2019-05-14T08:28:38.409Z,1017.59
2019-05-14T08:29:40.141Z,1017.61
2019-05-14T08:30:38.869Z,1017.62
2019-05-14T08:31:38.466Z,1017.63
2019-05-14T08:32:39.099Z,1017.61
2019-05-14T08:33:39.653Z,1017.58
2019-05-14T08:34:38.988Z,1017.52
2019-05-14T08:35:39.561Z,1017.54
2019-05-14T08:36:38.104Z,1017.49
2019-05-14T08:37:38.738Z,1017.52
2019-05-14T08:38:38.429Z,1017.54
2019-05-14T08:39:39.182Z,1017.51
2019-05-14T08:40:38.258Z,1017.55
2019-05-14T08:41:38.373Z,1017.57
2019-05-14T08:42:38.307Z,1017.50
2019-05-14T08:43:39.633Z,1017.53
2019-05-14T08:44:38.982Z,1017.48
2019-05-14T08:45:38.933Z,1017.56
2019-05-14T08:46:38.881Z,1017.40
2019-05-14T08:47:39.034Z,1017.43
2019-05-14T08:48:38.937Z,1017.42
2019-05-14T08:49:45.816Z,1017.44
2019-05-14T08:50:38.725Z,1017.48
2019-05-14T08:51:38.830Z,1017.41
2019-05-14T08:52:39.190Z,1017.37
2019-05-14T08:53:38.721Z,1017.32
2019-05-14T08:54:39.131Z,1017.34
2019-05-14T08:55:38.294Z,1017.39
2019-05-14T08:56:38.978Z,1017.33
2019-05-14T08:57:38.702Z,1017.36
2019-05-14T08:58:38.491Z,1017.33
2019-05-14T08:59:39.535Z,1017.33
2019-05-14T09:00:38.699Z,1017.31
2019-05-14T09:01:38.709Z,1017.32
2019-05-14T09:02:39.232Z,1017.24
2019-05-14T09:03:39.352Z,1017.28
2019-05-14T09:04:42.591Z,1017.28
2019-05-14T09:05:38.636Z,1017.30
2019-05-14T09:06:38.407Z,1017.24
2019-05-14T09:07:38.424Z,1017.19
2019-05-14T09:08:38.996Z,1017.23
2019-05-14T09:09:38.212Z,1017.12
2019-05-14T09:10:40.024Z,1017.17
2019-05-14T09:11:44.646Z,1017.13
2019-05-14T09:12:38.780Z,1017.23
2019-05-14T09:13:38.313Z,1017.14
2019-05-14T09:14:38.889Z,1017.09
2019-05-14T09:15:38.492Z,1017.07
2019-05-14T09:16:46.155Z,1017.11
2019-05-14T09:17:38.996Z,1017.14
2019-05-14T09:18:38.522Z,1017.06
2019-05-14T09:19:39.433Z,1017.08
2019-05-14T09:20:38.123Z,1017.06
2019-05-14T09:21:39.804Z,1017.09
2019-05-14T09:22:39.730Z,1016.99
2019-05-14T09:23:39.205Z,1016.97
2019-05-14T09:24:38.749Z,1017.00
2019-05-14T09:25:46.492Z,1017.03
2019-05-14T09:26:39.046Z,1016.97
2019-05-14T09:27:38.821Z,1016.98
2019-05-14T09:28:39.181Z,1017.07
2019-05-14T09:29:39.434Z,1017.07
2019-05-14T09:30:38.123Z,1017.10
2019-05-14T09:31:39.158Z,1017.03
2019-05-14T09:32:38.871Z,1017.01
2019-05-14T09:33:38.910Z,1016.99
2019-05-14T09:34:39.351Z,1016.94
2019-05-14T09:35:38.681Z,1016.94
2019-05-14T09:36:39.608Z,1016.96
2019-05-14T09:37:39.485Z,1017.00
2019-05-14T09:38:42.278Z,1016.95
2019-05-14T09:39:38.592Z,1016.92
2019-05-14T09:40:39.677Z,1016.99
2019-05-14T09:41:38.810Z,1016.87
2019-05-14T09:42:39.350Z,1016.88
2019-05-14T09:43:39.205Z,1016.80
2019-05-14T09:44:38.677Z,1016.92
2019-05-14T09:45:38.798Z,1016.86
2019-05-14T09:46:38.490Z,1016.86
2019-05-14T09:47:38.809Z,1016.95
2019-05-14T09:48:38.029Z,1016.91
2019-05-14T09:49:38.801Z,1016.86
2019-05-14T09:50:38.418Z,1016.85
2019-05-14T09:51:38.413Z,1016.92
2019-05-14T09:52:39.181Z,1016.84
2019-05-14T09:53:38.417Z,1016.77
2019-05-14T09:54:40.286Z,1016.72
2019-05-14T09:55:38.890Z,1016.88
2019-05-14T09:56:39.580Z,1016.87
2019-05-14T09:57:38.849Z,1016.90
2019-05-14T09:58:38.739Z,1016.85
2019-05-14T09:59:38.443Z,1016.86
2019-05-14T10:00:38.934Z,1016.79
2019-05-14T10:01:38.393Z,1016.95
2019-05-14T10:02:39.327Z,1016.82
2019-05-14T10:03:39.181Z,1016.83
2019-05-14T10:04:39.212Z,1016.79
2019-05-14T10:05:37.501Z,1016.92
2019-05-14T10:06:39.218Z,1016.88
2019-05-14T10:07:39.107Z,1016.97
2019-05-14T10:08:39.020Z,1016.84
2019-05-14T10:09:38.972Z,1016.77
2019-05-14T10:10:39.914Z,1016.81
2019-05-14T10:11:38.350Z,1016.69
2019-05-14T10:12:50.740Z,1016.75
2019-05-14T10:13:39.333Z,1016.83
2019-05-14T10:14:39.394Z,1016.75
2019-05-14T10:15:39.088Z,1016.78
2019-05-14T10:16:38.446Z,1016.69
2019-05-14T10:17:39.312Z,1016.72
2019-05-14T10:18:38.018Z,1016.77
2019-05-14T10:19:39.283Z,1016.80
2019-05-14T10:20:44.875Z,1016.83
2019-05-14T10:21:38.878Z,1016.78
2019-05-14T10:22:39.657Z,1016.77
2019-05-14T10:23:38.934Z,1016.73
2019-05-14T10:24:38.584Z,1016.76
2019-05-14T10:25:40.215Z,1016.78
2019-05-14T10:26:39.498Z,1016.76
2019-05-14T10:27:37.439Z,1016.72
2019-05-14T10:28:41.260Z,1016.83
2019-05-14T10:29:39.436Z,1016.73
2019-05-14T10:30:37.427Z,1016.78
2019-05-14T10:31:39.583Z,1016.79
2019-05-14T10:32:41.267Z,1016.70
2019-05-14T10:33:37.436Z,1016.78
2019-05-14T10:34:37.442Z,1016.72
2019-05-14T10:35:39.099Z,1016.74
2019-05-14T10:36:37.415Z,1016.68
2019-05-14T10:37:39.773Z,1016.64
2019-05-14T10:38:38.713Z,1016.76
2019-05-14T10:39:39.083Z,1016.62
2019-05-14T10:40:38.541Z,1016.62
2019-05-14T10:41:38.451Z,1016.73
2019-05-14T10:42:40.009Z,1016.76
2019-05-14T10:43:39.134Z,1016.67
2019-05-14T10:44:38.677Z,1016.71
2019-05-14T10:45:38.505Z,1016.68
2019-05-14T10:46:38.461Z,1016.62
2019-05-14T10:47:38.868Z,1016.60
2019-05-14T10:48:39.601Z,1016.72
2019-05-14T10:49:38.638Z,1016.65
2019-05-14T10:50:55.212Z,1016.68
2019-05-14T10:51:38.945Z,1016.65
2019-05-14T10:52:39.532Z,1016.65
2019-05-14T10:53:37.380Z,1016.64
2019-05-14T10:54:40.271Z,1016.64
2019-05-14T10:55:38.693Z,1016.66
2019-05-14T10:56:37.365Z,1016.60
2019-05-14T10:57:37.386Z,1016.62
2019-05-14T10:58:37.358Z,1016.70
2019-05-14T10:59:37.354Z,1016.61
2019-05-14T11:00:41.527Z,1016.66
2019-05-14T11:01:39.095Z,1016.66
2019-05-14T11:02:38.734Z,1016.65
2019-05-14T11:03:38.875Z,1016.60
2019-05-14T11:04:39.023Z,1016.48
2019-05-14T11:05:41.231Z,1016.52
2019-05-14T11:06:38.843Z,1016.46
2019-05-14T11:07:41.423Z,1016.48
2019-05-14T11:08:38.773Z,1016.48
2019-05-14T11:09:38.136Z,1016.42
2019-05-14T11:10:41.815Z,1016.47
2019-05-14T11:11:38.218Z,1016.36
2019-05-14T11:12:39.628Z,1016.21
2019-05-14T11:13:39.402Z,1016.37
2019-05-14T11:14:38.715Z,1016.43
2019-05-14T11:15:39.439Z,1016.38
2019-05-14T11:16:41.635Z,1016.35
2019-05-14T11:17:37.311Z,1016.35
2019-05-14T11:18:39.974Z,1016.29
2019-05-14T11:19:39.028Z,1016.34
2019-05-14T11:20:41.746Z,1016.31
2019-05-14T11:21:39.146Z,1016.29
2019-05-14T11:22:37.326Z,1016.27
2019-05-14T11:23:38.696Z,1016.23
2019-05-14T11:24:38.521Z,1016.25
2019-05-14T11:25:38.333Z,1016.20
2019-05-14T11:26:39.158Z,1016.16
2019-05-14T11:27:38.818Z,1016.19
2019-05-14T11:28:39.482Z,1016.15
2019-05-14T11:29:38.764Z,1016.19
2019-05-14T11:30:39.243Z,1016.23
2019-05-14T11:31:39.183Z,1016.22
2019-05-14T11:32:38.518Z,1016.15
2019-05-14T11:33:38.857Z,1016.25
2019-05-14T11:34:39.107Z,1016.12
2019-05-14T11:35:39.471Z,1016.19
2019-05-14T11:36:38.835Z,1016.04
2019-05-14T11:37:41.129Z,1016.17
2019-05-14T11:38:37.894Z,1016.15
2019-05-14T11:39:38.007Z,1016.12
2019-05-14T11:40:38.715Z,1016.16
2019-05-14T11:41:38.888Z,1016.27
2019-05-14T11:42:38.795Z,1016.14
2019-05-14T11:43:39.704Z,1016.07
2019-05-14T11:44:38.158Z,1016.03
2019-05-14T11:45:39.260Z,1016.14
2019-05-14T11:46:49.504Z,1016.01
2019-05-14T11:47:38.049Z,1016.13
2019-05-14T11:48:39.316Z,1016.05
2019-05-14T11:49:37.244Z,1016.08
2019-05-14T11:50:37.254Z,1016.09
2019-05-14T11:51:59.565Z,1016.05
2019-05-14T11:52:38.813Z,1015.97
2019-05-14T11:53:38.497Z,1015.96
2019-05-14T11:54:40.989Z,1016.10
2019-05-14T11:55:38.814Z,1015.88
2019-05-14T11:56:41.709Z,1016.01
2019-05-14T11:57:37.221Z,1015.94
2019-05-14T11:58:37.229Z,1015.97
2019-05-14T11:59:39.091Z,1015.94
2019-05-14T12:00:38.688Z,1016.06
2019-05-14T12:01:39.249Z,1015.89
2019-05-14T12:02:38.522Z,1016.01
2019-05-14T12:03:39.441Z,1015.87
2019-05-14T12:04:39.114Z,1015.83
2019-05-14T12:05:38.829Z,1015.95
2019-05-14T12:06:38.990Z,1015.81
2019-05-14T12:07:38.899Z,1015.85
2019-05-14T12:08:41.550Z,1015.87
2019-05-14T12:09:39.083Z,1015.92
2019-05-14T12:10:38.721Z,1015.97
2019-05-14T12:11:38.545Z,1015.93
2019-05-14T12:12:37.195Z,1015.74
2019-05-14T12:13:39.438Z,1015.87
2019-05-14T12:14:38.062Z,1015.83
2019-05-14T12:15:38.848Z,1015.86
2019-05-14T12:16:39.297Z,1015.88
2019-05-14T12:17:39.373Z,1015.88
2019-05-14T12:18:41.354Z,1015.78
2019-05-14T12:19:39.409Z,1015.78
2019-05-14T12:20:39.634Z,1015.78
2019-05-14T12:21:39.505Z,1015.77
2019-05-14T12:22:39.292Z,1015.76
2019-05-14T12:23:39.331Z,1015.67
2019-05-14T12:24:38.744Z,1015.92